sensor_id;sensor_type;location;lat;lon;timestamp;P1;durP1;ratioP1;P2;durP2;ratioP2
22939;SDS011;11636;52.086;5.090;2023-06-26T00:01:29;7.47;;;6.57;;
22939;SDS011;11636;52.086;5.090;2023-06-26T00:04:24;7.88;;;6.22;;
22939;SDS011;11636;52.086;5.090;2023-06-26T00:07:18;6.50;;;5.60;;
22939;SDS011;11636;52.086;5.090;2023-06-26T00:10:13;7.15;;;6.00;;
22939;SDS011;11636;52.086;5.090;2023-06-26T00:13:06;6.57;;;5.57;;
22939;SDS011;11636;52.086;5.090;2023-06-26T00:16:00;6.63;;;5.72;;
22939;SDS011;11636;52.086;5.090;2023-06-26T00:18:49;5.90;;;5.03;;
22939;SDS011;11636;52.086;5.090;2023-06-26T00:21:43;5.90;;;5.10;;
22939;SDS011;11636;52.086;5.090;2023-06-26T00:24:33;6.82;;;5.53;;
22939;SDS011;11636;52.086;5.090;2023-06-26T00:27:26;8.32;;;6.00;;
22939;SDS011;11636;52.086;5.090;2023-06-26T00:30:20;6.38;;;5.72;;
22939;SDS011;11636;52.086;5.090;2023-06-26T00:33:07;7.97;;;6.00;;
22939;SDS011;11636;52.086;5.090;2023-06-26T00:36:01;6.50;;;5.82;;
22939;SDS011;11636;52.086;5.090;2023-06-26T00:38:55;8.70;;;7.10;;
22939;SDS011;11636;52.086;5.090;2023-06-26T00:41:42;7.53;;;6.35;;
22939;SDS011;11636;52.086;5.090;2023-06-26T00:44:36;7.78;;;6.10;;
22939;SDS011;11636;52.086;5.090;2023-06-26T00:47:30;9.55;;;7.20;;
22939;SDS011;11636;52.086;5.090;2023-06-26T00:50:24;8.00;;;7.00;;
22939;SDS011;11636;52.086;5.090;2023-06-26T00:53:19;9.23;;;8.00;;
22939;SDS011;11636;52.086;5.090;2023-06-26T00:56:14;10.48;;;7.90;;
22939;SDS011;11636;52.086;5.090;2023-06-26T00:59:04;7.22;;;6.32;;
22939;SDS011;11636;52.086;5.090;2023-06-26T01:01:58;7.70;;;6.18;;
22939;SDS011;11636;52.086;5.090;2023-06-26T01:04:47;8.68;;;6.95;;
22939;SDS011;11636;52.086;5.090;2023-06-26T01:07:41;9.45;;;7.10;;
22939;SDS011;11636;52.086;5.090;2023-06-26T01:10:38;10.55;;;7.40;;
22939;SDS011;11636;52.086;5.090;2023-06-26T01:13:26;10.40;;;7.10;;
22939;SDS011;11636;52.086;5.090;2023-06-26T01:16:23;8.23;;;7.13;;
22939;SDS011;11636;52.086;5.090;2023-06-26T01:19:13;9.18;;;6.93;;
22939;SDS011;11636;52.086;5.090;2023-06-26T01:22:34;8.15;;;6.53;;
22939;SDS011;11636;52.086;5.090;2023-06-26T01:29:01;10.13;;;5.85;;
22939;SDS011;11636;52.086;5.090;2023-06-26T01:31:50;6.93;;;5.57;;
22939;SDS011;11636;52.086;5.090;2023-06-26T01:34:44;7.38;;;5.43;;
22939;SDS011;11636;52.086;5.090;2023-06-26T01:37:32;11.85;;;5.88;;
22939;SDS011;11636;52.086;5.090;2023-06-26T01:40:25;8.50;;;5.80;;
22939;SDS011;11636;52.086;5.090;2023-06-26T01:43:15;8.70;;;5.30;;
22939;SDS011;11636;52.086;5.090;2023-06-26T01:46:37;9.82;;;5.82;;
22939;SDS011;11636;52.086;5.090;2023-06-26T01:49:47;8.38;;;4.78;;
22939;SDS011;11636;52.086;5.090;2023-06-26T01:53:31;10.30;;;5.28;;
22939;SDS011;11636;52.086;5.090;2023-06-26T01:56:12;9.32;;;5.10;;
22939;SDS011;11636;52.086;5.090;2023-06-26T01:59:00;7.53;;;4.50;;
22939;SDS011;11636;52.086;5.090;2023-06-26T02:02:00;9.68;;;4.40;;
22939;SDS011;11636;52.086;5.090;2023-06-26T02:04:47;9.15;;;4.72;;
22939;SDS011;11636;52.086;5.090;2023-06-26T02:07:41;13.50;;;6.03;;
22939;SDS011;11636;52.086;5.090;2023-06-26T02:10:30;11.60;;;5.13;;
22939;SDS011;11636;52.086;5.090;2023-06-26T02:13:25;9.15;;;4.68;;
22939;SDS011;11636;52.086;5.090;2023-06-26T02:16:12;11.18;;;5.47;;
22939;SDS011;11636;52.086;5.090;2023-06-26T02:19:06;11.95;;;5.93;;
22939;SDS011;11636;52.086;5.090;2023-06-26T02:21:54;10.88;;;4.97;;
22939;SDS011;11636;52.086;5.090;2023-06-26T02:24:47;14.77;;;5.47;;
22939;SDS011;11636;52.086;5.090;2023-06-26T02:27:35;10.38;;;5.40;;
22939;SDS011;11636;52.086;5.090;2023-06-26T02:30:28;9.45;;;5.00;;
22939;SDS011;11636;52.086;5.090;2023-06-26T02:33:15;11.80;;;5.60;;
22939;SDS011;11636;52.086;5.090;2023-06-26T02:36:10;13.23;;;5.72;;
22939;SDS011;11636;52.086;5.090;2023-06-26T02:39:03;12.40;;;5.47;;
22939;SDS011;11636;52.086;5.090;2023-06-26T02:41:51;12.52;;;5.22;;
22939;SDS011;11636;52.086;5.090;2023-06-26T02:44:44;12.02;;;5.75;;
22939;SDS011;11636;52.086;5.090;2023-06-26T02:47:32;14.35;;;6.00;;
22939;SDS011;11636;52.086;5.090;2023-06-26T02:50:25;12.48;;;5.82;;
22939;SDS011;11636;52.086;5.090;2023-06-26T02:53:13;12.77;;;5.50;;
22939;SDS011;11636;52.086;5.090;2023-06-26T02:56:06;10.38;;;5.25;;
22939;SDS011;11636;52.086;5.090;2023-06-26T02:58:56;13.63;;;6.20;;
22939;SDS011;11636;52.086;5.090;2023-06-26T03:01:50;13.73;;;5.85;;
22939;SDS011;11636;52.086;5.090;2023-06-26T03:04:37;13.23;;;6.13;;
22939;SDS011;11636;52.086;5.090;2023-06-26T03:07:31;11.82;;;5.30;;
22939;SDS011;11636;52.086;5.090;2023-06-26T03:10:19;14.40;;;6.05;;
22939;SDS011;11636;52.086;5.090;2023-06-26T03:13:12;11.32;;;5.22;;
22939;SDS011;11636;52.086;5.090;2023-06-26T03:16:00;14.32;;;5.70;;
22939;SDS011;11636;52.086;5.090;2023-06-26T03:18:53;11.20;;;6.00;;
22939;SDS011;11636;52.086;5.090;2023-06-26T03:21:47;14.45;;;5.97;;
22939;SDS011;11636;52.086;5.090;2023-06-26T03:24:35;12.40;;;6.07;;
22939;SDS011;11636;52.086;5.090;2023-06-26T03:27:28;15.32;;;6.47;;
22939;SDS011;11636;52.086;5.090;2023-06-26T03:30:22;16.17;;;6.32;;
22939;SDS011;11636;52.086;5.090;2023-06-26T03:33:16;16.23;;;6.80;;
22939;SDS011;11636;52.086;5.090;2023-06-26T03:36:04;18.63;;;6.32;;
22939;SDS011;11636;52.086;5.090;2023-06-26T03:38:58;14.32;;;6.38;;
22939;SDS011;11636;52.086;5.090;2023-06-26T03:41:46;13.13;;;6.60;;
22939;SDS011;11636;52.086;5.090;2023-06-26T03:44:40;13.88;;;5.70;;
22939;SDS011;11636;52.086;5.090;2023-06-26T03:47:28;12.63;;;5.75;;
22939;SDS011;11636;52.086;5.090;2023-06-26T03:50:21;19.02;;;6.80;;
22939;SDS011;11636;52.086;5.090;2023-06-26T03:53:09;17.88;;;6.45;;
22939;SDS011;11636;52.086;5.090;2023-06-26T03:56:02;14.10;;;6.20;;
22939;SDS011;11636;52.086;5.090;2023-06-26T03:58:56;14.85;;;6.70;;
22939;SDS011;11636;52.086;5.090;2023-06-26T04:01:44;13.52;;;6.05;;
22939;SDS011;11636;52.086;5.090;2023-06-26T04:04:39;14.48;;;6.10;;
22939;SDS011;11636;52.086;5.090;2023-06-26T04:07:32;12.18;;;5.68;;
22939;SDS011;11636;52.086;5.090;2023-06-26T04:10:21;15.63;;;6.28;;
22939;SDS011;11636;52.086;5.090;2023-06-26T04:13:14;12.57;;;5.80;;
22939;SDS011;11636;52.086;5.090;2023-06-26T04:16:08;14.93;;;6.20;;
22939;SDS011;11636;52.086;5.090;2023-06-26T04:19:05;15.13;;;6.25;;
22939;SDS011;11636;52.086;5.090;2023-06-26T04:21:52;12.55;;;6.00;;
22939;SDS011;11636;52.086;5.090;2023-06-26T04:24:45;15.07;;;6.50;;
22939;SDS011;11636;52.086;5.090;2023-06-26T04:27:33;14.02;;;6.13;;
22939;SDS011;11636;52.086;5.090;2023-06-26T04:30:27;13.40;;;5.75;;
22939;SDS011;11636;52.086;5.090;2023-06-26T04:33:21;13.63;;;6.20;;
22939;SDS011;11636;52.086;5.090;2023-06-26T04:36:08;11.27;;;5.90;;
22939;SDS011;11636;52.086;5.090;2023-06-26T04:39:02;13.27;;;5.70;;
22939;SDS011;11636;52.086;5.090;2023-06-26T04:41:51;14.68;;;6.28;;
22939;SDS011;11636;52.086;5.090;2023-06-26T04:44:45;16.98;;;5.80;;
22939;SDS011;11636;52.086;5.090;2023-06-26T04:47:40;13.80;;;5.78;;
22939;SDS011;11636;52.086;5.090;2023-06-26T04:50:27;12.90;;;5.20;;
22939;SDS011;11636;52.086;5.090;2023-06-26T04:53:22;11.90;;;5.03;;
22939;SDS011;11636;52.086;5.090;2023-06-26T04:56:10;11.38;;;5.68;;
22939;SDS011;11636;52.086;5.090;2023-06-26T04:59:04;11.25;;;4.95;;
22939;SDS011;11636;52.086;5.090;2023-06-26T05:01:51;12.63;;;4.90;;
22939;SDS011;11636;52.086;5.090;2023-06-26T05:04:45;14.70;;;5.38;;
22939;SDS011;11636;52.086;5.090;2023-06-26T05:07:33;12.55;;;5.13;;
22939;SDS011;11636;52.086;5.090;2023-06-26T05:10:28;11.10;;;4.95;;
22939;SDS011;11636;52.086;5.090;2023-06-26T05:13:23;11.32;;;4.72;;
22939;SDS011;11636;52.086;5.090;2023-06-26T05:16:20;12.25;;;5.60;;
22939;SDS011;11636;52.086;5.090;2023-06-26T05:19:14;11.45;;;5.20;;
22939;SDS011;11636;52.086;5.090;2023-06-26T05:22:08;10.23;;;4.50;;
22939;SDS011;11636;52.086;5.090;2023-06-26T05:24:55;10.55;;;5.07;;
22939;SDS011;11636;52.086;5.090;2023-06-26T05:27:52;10.70;;;5.05;;
22939;SDS011;11636;52.086;5.090;2023-06-26T05:30:39;7.60;;;4.25;;
22939;SDS011;11636;52.086;5.090;2023-06-26T05:33:34;9.60;;;4.70;;
22939;SDS011;11636;52.086;5.090;2023-06-26T05:36:30;8.63;;;4.03;;
22939;SDS011;11636;52.086;5.090;2023-06-26T05:39:20;11.10;;;4.28;;
22939;SDS011;11636;52.086;5.090;2023-06-26T05:42:14;7.50;;;4.30;;
22939;SDS011;11636;52.086;5.090;2023-06-26T05:45:02;10.20;;;4.38;;
22939;SDS011;11636;52.086;5.090;2023-06-26T05:47:56;9.38;;;4.45;;
22939;SDS011;11636;52.086;5.090;2023-06-26T05:50:49;9.30;;;4.30;;
22939;SDS011;11636;52.086;5.090;2023-06-26T05:53:43;12.20;;;4.32;;
22939;SDS011;11636;52.086;5.090;2023-06-26T05:56:37;12.05;;;4.72;;
22939;SDS011;11636;52.086;5.090;2023-06-26T05:59:31;8.82;;;4.45;;
22939;SDS011;11636;52.086;5.090;2023-06-26T06:02:25;12.95;;;5.38;;
22939;SDS011;11636;52.086;5.090;2023-06-26T06:05:12;10.45;;;4.53;;
22939;SDS011;11636;52.086;5.090;2023-06-26T06:08:06;8.27;;;4.20;;
22939;SDS011;11636;52.086;5.090;2023-06-26T06:11:00;10.30;;;3.95;;
22939;SDS011;11636;52.086;5.090;2023-06-26T06:13:48;9.27;;;3.70;;
22939;SDS011;11636;52.086;5.090;2023-06-26T06:16:42;10.98;;;3.95;;
22939;SDS011;11636;52.086;5.090;2023-06-26T06:19:29;8.52;;;3.33;;
22939;SDS011;11636;52.086;5.090;2023-06-26T06:22:23;5.90;;;2.95;;
22939;SDS011;11636;52.086;5.090;2023-06-26T06:25:10;8.25;;;3.75;;
22939;SDS011;11636;52.086;5.090;2023-06-26T06:28:04;9.07;;;3.67;;
22939;SDS011;11636;52.086;5.090;2023-06-26T06:30:52;7.60;;;3.60;;
22939;SDS011;11636;52.086;5.090;2023-06-26T06:33:46;9.77;;;4.55;;
22939;SDS011;11636;52.086;5.090;2023-06-26T06:36:33;8.32;;;4.63;;
22939;SDS011;11636;52.086;5.090;2023-06-26T06:39:27;8.20;;;3.80;;
22939;SDS011;11636;52.086;5.090;2023-06-26T06:42:21;7.60;;;3.80;;
22939;SDS011;11636;52.086;5.090;2023-06-26T06:45:09;9.85;;;4.10;;
22939;SDS011;11636;52.086;5.090;2023-06-26T06:48:03;7.78;;;4.30;;
22939;SDS011;11636;52.086;5.090;2023-06-26T06:50:58;11.30;;;3.90;;
22939;SDS011;11636;52.086;5.090;2023-06-26T06:53:45;10.38;;;4.00;;
22939;SDS011;11636;52.086;5.090;2023-06-26T06:56:39;9.70;;;3.72;;
22939;SDS011;11636;52.086;5.090;2023-06-26T06:59:26;13.40;;;4.18;;
22939;SDS011;11636;52.086;5.090;2023-06-26T07:02:20;10.65;;;3.50;;
22939;SDS011;11636;52.086;5.090;2023-06-26T07:05:21;10.05;;;4.03;;
22939;SDS011;11636;52.086;5.090;2023-06-26T07:08:28;9.65;;;3.58;;
22939;SDS011;11636;52.086;5.090;2023-06-26T07:11:16;7.10;;;3.35;;
22939;SDS011;11636;52.086;5.090;2023-06-26T07:14:10;8.15;;;3.20;;
22939;SDS011;11636;52.086;5.090;2023-06-26T07:16:57;10.65;;;3.17;;
22939;SDS011;11636;52.086;5.090;2023-06-26T07:19:51;5.93;;;2.95;;
22939;SDS011;11636;52.086;5.090;2023-06-26T07:22:38;9.10;;;3.60;;
22939;SDS011;11636;52.086;5.090;2023-06-26T07:25:32;11.63;;;3.78;;
22939;SDS011;11636;52.086;5.090;2023-06-26T07:28:19;7.10;;;2.95;;
22939;SDS011;11636;52.086;5.090;2023-06-26T07:31:13;6.70;;;3.00;;
22939;SDS011;11636;52.086;5.090;2023-06-26T07:34:03;8.25;;;2.72;;
22939;SDS011;11636;52.086;5.090;2023-06-26T07:36:57;6.88;;;2.97;;
22939;SDS011;11636;52.086;5.090;2023-06-26T07:39:51;8.38;;;2.90;;
22939;SDS011;11636;52.086;5.090;2023-06-26T07:42:38;7.97;;;2.60;;
22939;SDS011;11636;52.086;5.090;2023-06-26T07:45:33;8.52;;;3.20;;
22939;SDS011;11636;52.086;5.090;2023-06-26T07:48:27;9.25;;;2.92;;
22939;SDS011;11636;52.086;5.090;2023-06-26T07:51:14;8.57;;;2.80;;
22939;SDS011;11636;52.086;5.090;2023-06-26T07:54:08;6.97;;;2.95;;
22939;SDS011;11636;52.086;5.090;2023-06-26T07:56:56;8.52;;;2.63;;
22939;SDS011;11636;52.086;5.090;2023-06-26T07:59:54;14.20;;;2.88;;
22939;SDS011;11636;52.086;5.090;2023-06-26T08:02:42;6.93;;;2.20;;
22939;SDS011;11636;52.086;5.090;2023-06-26T08:05:36;9.00;;;2.53;;
22939;SDS011;11636;52.086;5.090;2023-06-26T08:08:24;5.95;;;2.10;;
22939;SDS011;11636;52.086;5.090;2023-06-26T08:11:17;9.05;;;2.20;;
22939;SDS011;11636;52.086;5.090;2023-06-26T08:14:04;7.88;;;2.30;;
22939;SDS011;11636;52.086;5.090;2023-06-26T08:16:58;9.43;;;2.58;;
22939;SDS011;11636;52.086;5.090;2023-06-26T08:19:46;8.52;;;2.38;;
22939;SDS011;11636;52.086;5.090;2023-06-26T08:22:40;8.80;;;2.20;;
22939;SDS011;11636;52.086;5.090;2023-06-26T08:25:34;8.13;;;2.42;;
22939;SDS011;11636;52.086;5.090;2023-06-26T08:28:21;7.00;;;2.60;;
22939;SDS011;11636;52.086;5.090;2023-06-26T08:31:15;9.05;;;2.47;;
22939;SDS011;11636;52.086;5.090;2023-06-26T08:34:10;9.02;;;2.22;;
22939;SDS011;11636;52.086;5.090;2023-06-26T08:36:58;6.07;;;1.80;;
22939;SDS011;11636;52.086;5.090;2023-06-26T08:39:53;9.88;;;2.53;;
22939;SDS011;11636;52.086;5.090;2023-06-26T08:42:40;13.43;;;3.22;;
22939;SDS011;11636;52.086;5.090;2023-06-26T08:45:34;5.60;;;2.08;;
22939;SDS011;11636;52.086;5.090;2023-06-26T08:48:21;9.90;;;2.10;;
22939;SDS011;11636;52.086;5.090;2023-06-26T08:51:17;10.90;;;2.35;;
22939;SDS011;11636;52.086;5.090;2023-06-26T08:54:08;8.70;;;2.13;;
22939;SDS011;11636;52.086;5.090;2023-06-26T08:57:06;5.53;;;2.17;;
22939;SDS011;11636;52.086;5.090;2023-06-26T08:59:54;9.35;;;2.28;;
22939;SDS011;11636;52.086;5.090;2023-06-26T09:02:48;7.85;;;2.22;;
22939;SDS011;11636;52.086;5.090;2023-06-26T09:05:35;8.13;;;2.28;;
22939;SDS011;11636;52.086;5.090;2023-06-26T09:08:29;5.25;;;2.05;;
22939;SDS011;11636;52.086;5.090;2023-06-26T09:11:16;5.65;;;2.42;;
22939;SDS011;11636;52.086;5.090;2023-06-26T09:14:10;8.00;;;2.47;;
22939;SDS011;11636;52.086;5.090;2023-06-26T09:16:59;6.05;;;2.20;;
22939;SDS011;11636;52.086;5.090;2023-06-26T09:19:52;6.20;;;1.90;;
22939;SDS011;11636;52.086;5.090;2023-06-26T09:22:41;7.45;;;2.30;;
22939;SDS011;11636;52.086;5.090;2023-06-26T09:25:38;8.30;;;2.10;;
22939;SDS011;11636;52.086;5.090;2023-06-26T09:28:34;6.85;;;2.20;;
22939;SDS011;11636;52.086;5.090;2023-06-26T09:31:28;6.95;;;2.00;;
22939;SDS011;11636;52.086;5.090;2023-06-26T09:34:30;6.80;;;2.13;;
22939;SDS011;11636;52.086;5.090;2023-06-26T09:37:25;6.40;;;2.20;;
22939;SDS011;11636;52.086;5.090;2023-06-26T09:40:19;6.65;;;2.55;;
22939;SDS011;11636;52.086;5.090;2023-06-26T09:43:13;4.95;;;1.92;;
22939;SDS011;11636;52.086;5.090;2023-06-26T09:46:07;6.93;;;2.00;;
22939;SDS011;11636;52.086;5.090;2023-06-26T09:52:17;6.18;;;1.90;;
22939;SDS011;11636;52.086;5.090;2023-06-26T09:55:11;5.90;;;1.75;;
22939;SDS011;11636;52.086;5.090;2023-06-26T09:58:06;7.10;;;1.70;;
22939;SDS011;11636;52.086;5.090;2023-06-26T10:00:55;8.70;;;1.88;;
22939;SDS011;11636;52.086;5.090;2023-06-26T10:03:48;7.45;;;1.92;;
22939;SDS011;11636;52.086;5.090;2023-06-26T10:06:37;4.97;;;1.90;;
22939;SDS011;11636;52.086;5.090;2023-06-26T10:09:36;6.80;;;1.95;;
22939;SDS011;11636;52.086;5.090;2023-06-26T10:12:34;6.63;;;1.90;;
22939;SDS011;11636;52.086;5.090;2023-06-26T10:15:28;9.05;;;1.98;;
22939;SDS011;11636;52.086;5.090;2023-06-26T10:18:16;7.05;;;1.85;;
22939;SDS011;11636;52.086;5.090;2023-06-26T10:21:17;6.15;;;1.50;;
22939;SDS011;11636;52.086;5.090;2023-06-26T10:24:08;8.75;;;2.05;;
22939;SDS011;11636;52.086;5.090;2023-06-26T10:27:14;5.30;;;1.58;;
22939;SDS011;11636;52.086;5.090;2023-06-26T10:30:04;8.82;;;2.00;;
22939;SDS011;11636;52.086;5.090;2023-06-26T10:33:07;7.25;;;2.00;;
22939;SDS011;11636;52.086;5.090;2023-06-26T10:36:14;5.85;;;1.70;;
22939;SDS011;11636;52.086;5.090;2023-06-26T10:39:08;5.80;;;1.80;;
22939;SDS011;11636;52.086;5.090;2023-06-26T10:41:56;8.95;;;2.33;;
22939;SDS011;11636;52.086;5.090;2023-06-26T10:45:08;5.28;;;2.15;;
22939;SDS011;11636;52.086;5.090;2023-06-26T10:47:58;6.50;;;1.75;;
22939;SDS011;11636;52.086;5.090;2023-06-26T10:50:52;6.65;;;2.20;;
22939;SDS011;11636;52.086;5.090;2023-06-26T10:53:40;7.55;;;2.28;;
22939;SDS011;11636;52.086;5.090;2023-06-26T10:56:49;7.30;;;1.70;;
22939;SDS011;11636;52.086;5.090;2023-06-26T10:59:39;8.10;;;1.80;;
22939;SDS011;11636;52.086;5.090;2023-06-26T11:02:46;6.00;;;1.77;;
22939;SDS011;11636;52.086;5.090;2023-06-26T11:05:34;5.72;;;1.80;;
22939;SDS011;11636;52.086;5.090;2023-06-26T11:14:41;5.03;;;1.50;;
22939;SDS011;11636;52.086;5.090;2023-06-26T11:17:39;5.32;;;1.65;;
22939;SDS011;11636;52.086;5.090;2023-06-26T11:20:27;6.07;;;1.73;;
22939;SDS011;11636;52.086;5.090;2023-06-26T11:23:22;5.88;;;1.63;;
22939;SDS011;11636;52.086;5.090;2023-06-26T11:26:20;5.30;;;1.42;;
22939;SDS011;11636;52.086;5.090;2023-06-26T11:29:14;5.63;;;1.58;;
22939;SDS011;11636;52.086;5.090;2023-06-26T11:32:02;5.55;;;1.40;;
22939;SDS011;11636;52.086;5.090;2023-06-26T11:35:01;3.95;;;1.40;;
22939;SDS011;11636;52.086;5.090;2023-06-26T11:37:54;4.38;;;1.15;;
22939;SDS011;11636;52.086;5.090;2023-06-26T11:40:51;6.25;;;1.63;;
22939;SDS011;11636;52.086;5.090;2023-06-26T11:43:38;5.13;;;1.23;;
22939;SDS011;11636;52.086;5.090;2023-06-26T11:46:34;5.55;;;1.20;;
22939;SDS011;11636;52.086;5.090;2023-06-26T11:49:22;5.05;;;1.23;;
22939;SDS011;11636;52.086;5.090;2023-06-26T11:52:18;6.35;;;1.40;;
22939;SDS011;11636;52.086;5.090;2023-06-26T11:55:05;4.10;;;1.20;;
22939;SDS011;11636;52.086;5.090;2023-06-26T11:57:59;5.40;;;1.73;;
22939;SDS011;11636;52.086;5.090;2023-06-26T12:00:47;9.18;;;1.88;;
22939;SDS011;11636;52.086;5.090;2023-06-26T12:03:41;6.47;;;1.40;;
22939;SDS011;11636;52.086;5.090;2023-06-26T12:06:34;5.30;;;1.30;;
22939;SDS011;11636;52.086;5.090;2023-06-26T12:09:29;7.75;;;1.40;;
22939;SDS011;11636;52.086;5.090;2023-06-26T12:12:19;6.18;;;1.33;;
22939;SDS011;11636;52.086;5.090;2023-06-26T12:15:14;4.35;;;1.00;;
22939;SDS011;11636;52.086;5.090;2023-06-26T12:18:08;4.60;;;1.23;;
22939;SDS011;11636;52.086;5.090;2023-06-26T12:21:02;4.18;;;1.35;;
22939;SDS011;11636;52.086;5.090;2023-06-26T12:24:00;4.32;;;1.25;;
22939;SDS011;11636;52.086;5.090;2023-06-26T12:26:51;3.95;;;1.20;;
22939;SDS011;11636;52.086;5.090;2023-06-26T12:29:53;6.10;;;1.27;;
22939;SDS011;11636;52.086;5.090;2023-06-26T12:32:44;5.72;;;1.58;;
22939;SDS011;11636;52.086;5.090;2023-06-26T12:35:39;3.60;;;1.00;;
22939;SDS011;11636;52.086;5.090;2023-06-26T12:38:35;7.45;;;1.17;;
22939;SDS011;11636;52.086;5.090;2023-06-26T12:41:26;6.50;;;1.65;;
22939;SDS011;11636;52.086;5.090;2023-06-26T12:44:21;5.55;;;1.50;;
22939;SDS011;11636;52.086;5.090;2023-06-26T12:47:22;5.55;;;1.50;;
22939;SDS011;11636;52.086;5.090;2023-06-26T12:50:11;3.38;;;1.38;;
22939;SDS011;11636;52.086;5.090;2023-06-26T12:53:05;4.82;;;1.40;;
22939;SDS011;11636;52.086;5.090;2023-06-26T12:56:00;4.43;;;1.33;;
22939;SDS011;11636;52.086;5.090;2023-06-26T12:58:47;4.25;;;1.40;;
22939;SDS011;11636;52.086;5.090;2023-06-26T13:01:41;6.25;;;1.60;;
22939;SDS011;11636;52.086;5.090;2023-06-26T13:04:29;3.60;;;1.15;;
22939;SDS011;11636;52.086;5.090;2023-06-26T13:07:22;6.03;;;1.70;;
22939;SDS011;11636;52.086;5.090;2023-06-26T13:10:19;4.22;;;1.25;;
22939;SDS011;11636;52.086;5.090;2023-06-26T13:13:06;6.10;;;1.35;;
22939;SDS011;11636;52.086;5.090;2023-06-26T13:15:59;5.07;;;1.40;;
22939;SDS011;11636;52.086;5.090;2023-06-26T13:18:53;5.40;;;1.50;;
22939;SDS011;11636;52.086;5.090;2023-06-26T13:21:47;5.50;;;1.60;;
22939;SDS011;11636;52.086;5.090;2023-06-26T13:24:41;4.15;;;1.60;;
22939;SDS011;11636;52.086;5.090;2023-06-26T13:27:35;3.10;;;1.15;;
22939;SDS011;11636;52.086;5.090;2023-06-26T13:30:23;4.07;;;1.25;;
22939;SDS011;11636;52.086;5.090;2023-06-26T13:33:17;6.10;;;1.35;;
22939;SDS011;11636;52.086;5.090;2023-06-26T13:36:05;6.38;;;1.40;;
22939;SDS011;11636;52.086;5.090;2023-06-26T13:38:58;3.70;;;1.25;;
22939;SDS011;11636;52.086;5.090;2023-06-26T13:41:46;4.75;;;1.33;;
22939;SDS011;11636;52.086;5.090;2023-06-26T13:44:39;3.67;;;1.20;;
22939;SDS011;11636;52.086;5.090;2023-06-26T13:47:48;5.13;;;1.27;;
22939;SDS011;11636;52.086;5.090;2023-06-26T13:50:35;4.00;;;1.48;;
22939;SDS011;11636;52.086;5.090;2023-06-26T13:53:40;5.45;;;1.45;;
22939;SDS011;11636;52.086;5.090;2023-06-26T13:56:27;3.95;;;1.50;;
22939;SDS011;11636;52.086;5.090;2023-06-26T13:59:23;7.28;;;1.70;;
22939;SDS011;11636;52.086;5.090;2023-06-26T14:02:20;4.43;;;1.23;;
22939;SDS011;11636;52.086;5.090;2023-06-26T14:05:08;4.15;;;1.00;;
22939;SDS011;11636;52.086;5.090;2023-06-26T14:08:06;6.47;;;1.35;;
22939;SDS011;11636;52.086;5.090;2023-06-26T14:10:54;7.38;;;1.17;;
22939;SDS011;11636;52.086;5.090;2023-06-26T14:13:48;4.32;;;1.02;;
22939;SDS011;11636;52.086;5.090;2023-06-26T14:16:43;4.32;;;1.23;;
22939;SDS011;11636;52.086;5.090;2023-06-26T14:19:36;3.90;;;1.02;;
22939;SDS011;11636;52.086;5.090;2023-06-26T14:22:24;4.32;;;1.52;;
22939;SDS011;11636;52.086;5.090;2023-06-26T14:25:18;4.35;;;1.30;;
22939;SDS011;11636;52.086;5.090;2023-06-26T14:28:05;3.65;;;1.20;;
22939;SDS011;11636;52.086;5.090;2023-06-26T14:30:58;4.55;;;1.52;;
22939;SDS011;11636;52.086;5.090;2023-06-26T14:33:46;5.70;;;1.40;;
22939;SDS011;11636;52.086;5.090;2023-06-26T14:36:40;5.53;;;1.40;;
22939;SDS011;11636;52.086;5.090;2023-06-26T14:39:33;6.85;;;1.17;;
22939;SDS011;11636;52.086;5.090;2023-06-26T14:42:21;4.93;;;1.55;;
22939;SDS011;11636;52.086;5.090;2023-06-26T14:45:15;3.10;;;1.10;;
22939;SDS011;11636;52.086;5.090;2023-06-26T14:48:03;5.07;;;1.30;;
22939;SDS011;11636;52.086;5.090;2023-06-26T14:50:57;4.90;;;1.30;;
22939;SDS011;11636;52.086;5.090;2023-06-26T14:53:44;4.53;;;1.25;;
22939;SDS011;11636;52.086;5.090;2023-06-26T14:56:37;3.67;;;1.00;;
22939;SDS011;11636;52.086;5.090;2023-06-26T14:59:25;6.13;;;1.33;;
22939;SDS011;11636;52.086;5.090;2023-06-26T15:02:20;3.50;;;1.00;;
22939;SDS011;11636;52.086;5.090;2023-06-26T15:05:14;5.25;;;1.42;;
22939;SDS011;11636;52.086;5.090;2023-06-26T15:08:01;4.28;;;1.30;;
22939;SDS011;11636;52.086;5.090;2023-06-26T15:10:55;5.32;;;1.20;;
22939;SDS011;11636;52.086;5.090;2023-06-26T15:13:42;3.95;;;1.30;;
22939;SDS011;11636;52.086;5.090;2023-06-26T15:16:35;4.50;;;1.10;;
22939;SDS011;11636;52.086;5.090;2023-06-26T15:19:23;5.35;;;1.15;;
22939;SDS011;11636;52.086;5.090;2023-06-26T15:22:21;3.83;;;1.20;;
22939;SDS011;11636;52.086;5.090;2023-06-26T15:25:16;3.08;;;1.25;;
22939;SDS011;11636;52.086;5.090;2023-06-26T15:28:10;4.78;;;1.30;;
22939;SDS011;11636;52.086;5.090;2023-06-26T15:31:10;4.78;;;1.63;;
22939;SDS011;11636;52.086;5.090;2023-06-26T15:33:57;3.40;;;1.40;;
22939;SDS011;11636;52.086;5.090;2023-06-26T15:36:51;4.97;;;1.27;;
22939;SDS011;11636;52.086;5.090;2023-06-26T15:39:38;4.60;;;1.50;;
22939;SDS011;11636;52.086;5.090;2023-06-26T15:42:32;6.13;;;1.30;;
22939;SDS011;11636;52.086;5.090;2023-06-26T15:45:19;4.15;;;1.58;;
22939;SDS011;11636;52.086;5.090;2023-06-26T15:48:20;3.28;;;1.20;;
22939;SDS011;11636;52.086;5.090;2023-06-26T15:51:08;3.33;;;1.08;;
22939;SDS011;11636;52.086;5.090;2023-06-26T15:54:05;4.05;;;1.33;;
22939;SDS011;11636;52.086;5.090;2023-06-26T15:56:59;4.90;;;1.33;;
22939;SDS011;11636;52.086;5.090;2023-06-26T15:59:46;4.25;;;1.23;;
22939;SDS011;11636;52.086;5.090;2023-06-26T16:02:40;3.80;;;1.13;;
22939;SDS011;11636;52.086;5.090;2023-06-26T16:05:27;5.00;;;1.65;;
22939;SDS011;11636;52.086;5.090;2023-06-26T16:08:22;4.00;;;1.48;;
22939;SDS011;11636;52.086;5.090;2023-06-26T16:11:09;4.20;;;1.60;;
22939;SDS011;11636;52.086;5.090;2023-06-26T16:14:03;3.97;;;1.35;;
22939;SDS011;11636;52.086;5.090;2023-06-26T16:17:04;6.10;;;1.45;;
22939;SDS011;11636;52.086;5.090;2023-06-26T16:19:51;4.18;;;1.10;;
22939;SDS011;11636;52.086;5.090;2023-06-26T16:22:45;5.95;;;1.40;;
22939;SDS011;11636;52.086;5.090;2023-06-26T16:25:32;6.07;;;1.58;;
22939;SDS011;11636;52.086;5.090;2023-06-26T16:28:27;5.90;;;1.50;;
22939;SDS011;11636;52.086;5.090;2023-06-26T16:31:14;4.20;;;1.48;;
22939;SDS011;11636;52.086;5.090;2023-06-26T16:34:08;8.70;;;1.85;;
22939;SDS011;11636;52.086;5.090;2023-06-26T16:36:55;5.20;;;1.60;;
22939;SDS011;11636;52.086;5.090;2023-06-26T16:39:49;6.53;;;1.60;;
22939;SDS011;11636;52.086;5.090;2023-06-26T16:42:43;3.45;;;1.20;;
22939;SDS011;11636;52.086;5.090;2023-06-26T16:45:37;5.82;;;1.65;;
22939;SDS011;11636;52.086;5.090;2023-06-26T16:48:31;3.83;;;1.40;;
22939;SDS011;11636;52.086;5.090;2023-06-26T16:51:18;4.00;;;1.33;;
22939;SDS011;11636;52.086;5.090;2023-06-26T16:54:12;6.03;;;1.75;;
22939;SDS011;11636;52.086;5.090;2023-06-26T16:56:59;6.13;;;1.80;;
22939;SDS011;11636;52.086;5.090;2023-06-26T16:59:53;7.57;;;1.70;;
22939;SDS011;11636;52.086;5.090;2023-06-26T17:02:47;5.50;;;1.85;;
22939;SDS011;11636;52.086;5.090;2023-06-26T17:05:34;5.57;;;1.65;;
22939;SDS011;11636;52.086;5.090;2023-06-26T17:08:28;5.18;;;1.80;;
22939;SDS011;11636;52.086;5.090;2023-06-26T17:11:15;3.58;;;1.27;;
22939;SDS011;11636;52.086;5.090;2023-06-26T17:14:09;7.75;;;1.70;;
22939;SDS011;11636;52.086;5.090;2023-06-26T17:16:56;8.35;;;2.50;;
22939;SDS011;11636;52.086;5.090;2023-06-26T17:19:50;4.25;;;1.50;;
22939;SDS011;11636;52.086;5.090;2023-06-26T17:22:38;4.53;;;1.70;;
22939;SDS011;11636;52.086;5.090;2023-06-26T17:25:32;4.82;;;1.80;;
22939;SDS011;11636;52.086;5.090;2023-06-26T17:28:20;4.93;;;1.55;;